createdAt,value
2018-07-12T00:02:24.817Z,14.00
2018-07-12T00:04:52.868Z,14.33
2018-07-12T00:07:20.721Z,13.90
2018-07-12T00:09:48.581Z,13.87
2018-07-12T00:12:16.432Z,14.73
2018-07-12T00:14:44.251Z,14.70
2018-07-12T00:17:12.098Z,15.70
2018-07-12T00:19:39.949Z,15.33
2018-07-12T00:22:07.879Z,15.23
2018-07-12T00:24:35.731Z,14.13
2018-07-12T00:27:03.792Z,15.60
2018-07-12T00:29:31.645Z,15.00
2018-07-12T00:31:59.506Z,15.20
2018-07-12T00:34:27.350Z,16.00
2018-07-12T00:36:55.184Z,15.20
2018-07-12T00:39:23.034Z,15.70
2018-07-12T00:41:50.996Z,15.73
2018-07-12T00:44:18.829Z,15.07
2018-07-12T00:46:46.811Z,15.17
2018-07-12T00:49:14.646Z,15.80
2018-07-12T00:51:42.491Z,15.10
2018-07-12T00:54:10.317Z,15.80
2018-07-12T00:56:38.154Z,15.87
2018-07-12T00:59:09.341Z,15.90
2018-07-12T01:01:37.181Z,16.37
2018-07-12T01:04:05.037Z,16.03
2018-07-12T01:06:32.854Z,15.77
2018-07-12T01:09:00.909Z,15.80
2018-07-12T01:11:28.804Z,16.50
2018-07-12T01:13:56.646Z,17.27
2018-07-12T01:16:24.717Z,16.27
2018-07-12T01:18:52.656Z,15.73
2018-07-12T01:21:20.516Z,16.27
2018-07-12T01:23:48.349Z,16.10
2018-07-12T01:26:16.240Z,16.17
2018-07-12T01:28:44.088Z,16.17
2018-07-12T01:31:11.933Z,16.30
2018-07-12T01:33:39.780Z,15.70
2018-07-12T01:36:07.628Z,15.43
2018-07-12T01:38:35.469Z,15.13
2018-07-12T01:41:03.309Z,15.17
2018-07-12T01:43:31.130Z,14.87
2018-07-12T01:45:58.993Z,15.50
2018-07-12T01:48:26.864Z,14.00
2018-07-12T01:50:54.707Z,14.27
2018-07-12T01:53:22.565Z,14.67
2018-07-12T01:55:50.428Z,15.07
2018-07-12T01:58:18.243Z,14.37
2018-07-12T02:00:46.451Z,14.63
2018-07-12T02:03:14.503Z,14.27
2018-07-12T02:05:42.476Z,14.67
2018-07-12T02:08:10.644Z,14.80
2018-07-12T02:10:39.337Z,14.53
2018-07-12T02:13:07.841Z,15.03
2018-07-12T02:15:35.684Z,15.07
2018-07-12T02:18:03.523Z,14.73
2018-07-12T02:20:31.353Z,15.03
2018-07-12T02:22:59.217Z,14.20
2018-07-12T02:25:27.022Z,14.40
2018-07-12T02:27:54.838Z,14.37
2018-07-12T02:30:24.628Z,14.30
2018-07-12T02:32:52.425Z,13.00
2018-07-12T02:35:20.248Z,13.93
2018-07-12T02:37:48.124Z,13.57
2018-07-12T02:40:15.958Z,13.77
2018-07-12T02:42:43.797Z,13.23
2018-07-12T02:45:11.612Z,14.00
2018-07-12T02:47:39.672Z,13.10
2018-07-12T02:50:07.519Z,13.07
2018-07-12T02:52:35.355Z,14.23
2018-07-12T02:55:03.218Z,13.07
2018-07-12T02:57:31.058Z,12.17
2018-07-12T02:59:58.918Z,14.37
2018-07-12T03:02:26.741Z,13.33
2018-07-12T03:05:00.712Z,13.87
2018-07-12T03:07:28.558Z,13.03
2018-07-12T03:09:56.410Z,13.93
2018-07-12T03:12:24.678Z,13.43
2018-07-12T03:14:52.526Z,12.27
2018-07-12T03:17:20.382Z,12.63
2018-07-12T03:19:48.228Z,13.53
2018-07-12T03:22:16.046Z,13.43
2018-07-12T03:24:43.875Z,13.53
2018-07-12T03:27:11.721Z,14.13
2018-07-12T03:29:39.619Z,13.90
2018-07-12T03:32:07.476Z,14.43
2018-07-12T03:34:38.927Z,14.40
2018-07-12T03:37:06.805Z,14.17
2018-07-12T03:39:34.639Z,14.50
2018-07-12T03:42:02.473Z,14.13
2018-07-12T03:44:30.290Z,15.40
2018-07-12T03:46:58.125Z,14.53
2018-07-12T03:49:25.976Z,14.70
2018-07-12T03:51:53.921Z,14.33
2018-07-12T03:54:21.737Z,14.93
2018-07-12T03:56:49.625Z,14.87
2018-07-12T03:59:17.476Z,14.53
2018-07-12T04:01:45.310Z,14.27
2018-07-12T04:04:13.156Z,15.20
2018-07-12T04:06:40.985Z,13.83
2018-07-12T04:09:08.844Z,15.13
2018-07-12T04:11:36.673Z,14.13
2018-07-12T04:14:04.502Z,14.00
2018-07-12T04:16:32.349Z,14.57
2018-07-12T04:19:00.331Z,15.23
2018-07-12T04:21:28.187Z,14.07
2018-07-12T04:23:56.027Z,14.63
2018-07-12T04:26:23.846Z,15.33
2018-07-12T04:28:52.090Z,14.83
2018-07-12T04:31:19.944Z,15.37
2018-07-12T04:33:47.769Z,15.30
2018-07-12T04:36:15.708Z,15.73
2018-07-12T04:38:43.560Z,16.23
2018-07-12T04:41:11.408Z,16.30
2018-07-12T04:43:39.249Z,16.47
2018-07-12T04:46:07.081Z,15.83
2018-07-12T04:48:34.944Z,16.73
2018-07-12T04:51:02.773Z,17.27
2018-07-12T04:53:30.609Z,16.93
2018-07-12T04:55:58.511Z,17.07
2018-07-12T04:58:26.395Z,18.43
2018-07-12T05:00:54.297Z,16.80
2018-07-12T05:03:22.249Z,17.60
2018-07-12T05:05:50.907Z,16.87
2018-07-12T05:08:18.785Z,17.00
2018-07-12T05:10:46.611Z,16.83
2018-07-12T05:13:14.500Z,17.30
2018-07-12T05:15:42.335Z,17.63
2018-07-12T05:18:10.166Z,18.40
2018-07-12T05:20:38.015Z,17.43
2018-07-12T05:23:05.884Z,17.17
2018-07-12T05:25:33.702Z,17.37
2018-07-12T05:28:01.533Z,15.83
2018-07-12T05:30:29.507Z,16.57
2018-07-12T05:32:57.477Z,16.93
2018-07-12T05:35:26.847Z,16.73
2018-07-12T05:37:56.044Z,18.43
2018-07-12T05:40:25.457Z,17.27
2018-07-12T05:42:54.680Z,17.27
2018-07-12T05:45:23.865Z,16.60
2018-07-12T05:47:52.779Z,16.97
2018-07-12T05:50:21.741Z,17.57
2018-07-12T05:52:50.705Z,16.60
2018-07-12T05:55:20.129Z,15.53
2018-07-12T05:57:49.054Z,15.80
2018-07-12T06:00:18.599Z,16.40
2018-07-12T06:02:47.857Z,15.60
2018-07-12T06:05:17.044Z,16.20
2018-07-12T06:07:46.253Z,15.50
2018-07-12T06:10:15.226Z,16.60
2018-07-12T06:12:44.134Z,16.57
2018-07-12T06:15:13.066Z,14.80
2018-07-12T06:17:41.958Z,16.33
2018-07-12T06:20:11.156Z,16.23
2018-07-12T06:22:40.092Z,15.60
2018-07-12T06:25:08.993Z,17.43
2018-07-12T06:27:37.900Z,17.70
2018-07-12T06:30:07.072Z,18.30
2018-07-12T06:32:35.905Z,16.83
2018-07-12T06:35:05.067Z,16.53
2018-07-12T06:37:33.985Z,17.53
2018-07-12T06:40:02.943Z,16.63
2018-07-12T06:42:31.901Z,16.17
2018-07-12T06:45:00.747Z,17.93
2018-07-12T06:47:29.932Z,17.70
2018-07-12T06:49:58.833Z,17.90
2018-07-12T06:52:27.780Z,17.53
2018-07-12T06:54:56.698Z,17.70
2018-07-12T06:57:25.604Z,17.37
2018-07-12T06:59:54.512Z,16.47
2018-07-12T07:02:23.467Z,16.90
2018-07-12T07:04:52.375Z,16.77
2018-07-12T07:07:21.298Z,17.17
2018-07-12T07:09:50.217Z,17.17
2018-07-12T07:12:19.106Z,18.53
2018-07-12T07:14:48.097Z,17.97
2018-07-12T07:17:16.972Z,20.03
2018-07-12T07:19:45.863Z,18.47
2018-07-12T07:22:14.814Z,19.53
2018-07-12T07:24:43.707Z,19.00
2018-07-12T07:27:12.672Z,20.10
2018-07-12T07:29:41.583Z,18.63
2018-07-12T07:32:10.516Z,18.77
2018-07-12T07:34:39.424Z,19.67
2018-07-12T07:37:08.311Z,18.93
2018-07-12T07:39:37.244Z,21.03
2018-07-12T07:42:06.172Z,20.57
2018-07-12T07:44:35.101Z,19.33
2018-07-12T07:47:04.009Z,22.17
2018-07-12T07:49:32.942Z,21.47
2018-07-12T07:52:01.911Z,22.47
2018-07-12T07:54:30.828Z,20.73
2018-07-12T07:56:59.770Z,21.60
2018-07-12T07:59:28.607Z,21.27
2018-07-12T08:01:57.523Z,19.87
2018-07-12T08:04:26.429Z,25.93
2018-07-12T08:06:55.386Z,24.20
2018-07-12T08:09:24.309Z,22.67
2018-07-12T08:11:53.674Z,24.03
2018-07-12T08:14:22.629Z,31.97
2018-07-12T08:16:51.523Z,29.47
2018-07-12T08:19:20.754Z,24.50
2018-07-12T08:21:50.556Z,25.50
2018-07-12T08:24:19.872Z,24.67
2018-07-12T08:26:48.788Z,25.77
2018-07-12T08:29:17.794Z,24.40
2018-07-12T08:31:46.764Z,26.80
2018-07-12T08:34:15.645Z,23.40
2018-07-12T08:36:44.566Z,28.23
2018-07-12T08:39:13.565Z,25.97
2018-07-12T08:41:42.468Z,28.73
2018-07-12T08:44:11.355Z,27.93
2018-07-12T08:46:40.253Z,29.87
2018-07-12T08:49:09.161Z,28.83
2018-07-12T08:51:38.070Z,25.73
2018-07-12T08:54:06.986Z,31.40
2018-07-12T08:56:35.877Z,26.27
2018-07-12T08:59:04.788Z,25.97
2018-07-12T09:01:33.701Z,29.30
2018-07-12T09:04:02.583Z,26.93
2018-07-12T09:06:31.511Z,26.50
2018-07-12T09:09:00.441Z,25.17
2018-07-12T09:11:29.553Z,25.13
2018-07-12T09:13:58.468Z,24.57
2018-07-12T09:16:27.383Z,20.80
2018-07-12T09:18:56.310Z,21.30
2018-07-12T09:21:25.191Z,18.27
2018-07-12T09:23:54.097Z,22.30
2018-07-12T09:26:23.065Z,21.33
2018-07-12T09:28:52.263Z,17.30
2018-07-12T09:31:21.384Z,18.43
2018-07-12T09:33:50.292Z,16.20
2018-07-12T09:36:19.239Z,20.37
2018-07-12T09:38:52.740Z,18.63
2018-07-12T09:41:22.565Z,30.70
2018-07-12T09:43:51.878Z,29.50
2018-07-12T09:46:21.083Z,24.20
2018-07-12T09:48:51.178Z,20.97
2018-07-12T09:51:20.090Z,24.63
2018-07-12T09:53:49.056Z,23.50
2018-07-12T09:56:18.064Z,26.97
2018-07-12T09:58:46.838Z,28.43
2018-07-12T10:01:21.194Z,29.00
2018-07-12T10:03:52.418Z,31.10
2018-07-12T10:06:30.478Z,31.57
2018-07-12T10:09:04.397Z,31.03
2018-07-12T10:11:38.691Z,29.33
2018-07-12T10:14:13.081Z,31.13
2018-07-12T10:16:45.322Z,30.53
2018-07-12T10:19:14.248Z,25.97
2018-07-12T10:21:43.190Z,23.83
2018-07-12T10:24:12.117Z,26.63
2018-07-12T10:26:41.031Z,23.50
2018-07-12T10:29:09.917Z,24.10
2018-07-12T10:31:38.803Z,23.07
2018-07-12T10:34:07.896Z,24.63
2018-07-12T10:36:36.797Z,24.00
2018-07-12T10:39:07.913Z,23.27
2018-07-12T10:41:36.795Z,23.17
2018-07-12T10:44:05.954Z,27.27
2018-07-12T10:46:34.876Z,24.70
2018-07-12T10:49:03.807Z,20.23
2018-07-12T10:51:32.714Z,17.80
2018-07-12T10:54:01.668Z,18.40
2018-07-12T10:56:30.573Z,18.13
2018-07-12T10:58:59.577Z,18.77
2018-07-12T11:01:28.447Z,16.73
2018-07-12T11:03:57.338Z,17.93
2018-07-12T11:06:26.457Z,16.83
2018-07-12T11:08:55.397Z,14.97
2018-07-12T11:11:24.452Z,14.87
2018-07-12T11:13:54.019Z,17.73
2018-07-12T11:16:22.941Z,13.37
2018-07-12T11:18:51.857Z,14.83
2018-07-12T11:21:20.794Z,15.90
2018-07-12T11:23:49.719Z,14.93
2018-07-12T11:26:18.629Z,13.03
2018-07-12T11:28:47.533Z,12.47
2018-07-12T11:31:16.457Z,11.60
2018-07-12T11:33:47.539Z,12.37
2018-07-12T11:36:16.516Z,13.00
2018-07-12T11:38:46.141Z,12.33
2018-07-12T11:41:15.214Z,12.27
2018-07-12T11:43:44.177Z,12.37
2018-07-12T11:46:14.321Z,12.30
2018-07-12T11:48:43.803Z,9.70
2018-07-12T11:51:12.911Z,11.20
2018-07-12T11:53:41.819Z,12.97
2018-07-12T11:56:14.211Z,11.57
2018-07-12T11:58:43.399Z,11.03
2018-07-12T12:01:12.339Z,11.10
2018-07-12T12:03:41.237Z,9.97
2018-07-12T12:06:10.222Z,8.80
2018-07-12T12:08:39.297Z,8.23
2018-07-12T12:11:08.235Z,8.47
2018-07-12T12:13:37.126Z,7.77
2018-07-12T12:16:06.078Z,9.10
2018-07-12T12:18:35.524Z,8.77
2018-07-12T12:21:04.424Z,8.43
2018-07-12T12:23:33.346Z,8.60
2018-07-12T12:26:02.261Z,8.83
2018-07-12T12:28:31.153Z,8.40
2018-07-12T12:31:00.060Z,10.73
2018-07-12T12:33:29.466Z,9.17
2018-07-12T12:35:58.382Z,8.87
2018-07-12T12:38:27.319Z,8.63
2018-07-12T12:40:56.209Z,9.17
2018-07-12T12:43:25.098Z,7.67
2018-07-12T12:45:54.061Z,8.50
2018-07-12T12:48:22.969Z,8.30
2018-07-12T12:50:52.337Z,8.23
2018-07-12T12:53:21.192Z,7.50
2018-07-12T12:55:50.095Z,7.20
2018-07-12T12:58:19.198Z,6.73
2018-07-12T13:00:48.320Z,8.30
2018-07-12T13:03:17.244Z,8.00
2018-07-12T13:05:46.136Z,8.10
2018-07-12T13:08:15.052Z,7.07
2018-07-12T13:10:43.941Z,7.00
2018-07-12T13:13:12.834Z,7.10
2018-07-12T13:15:41.759Z,6.50
2018-07-12T13:18:10.650Z,6.57
2018-07-12T13:20:39.551Z,6.33
2018-07-12T13:23:08.488Z,6.73
2018-07-12T13:25:37.508Z,6.80
2018-07-12T13:28:06.399Z,7.13
2018-07-12T13:30:35.257Z,6.53
2018-07-12T13:33:04.188Z,6.13
2018-07-12T13:35:33.077Z,6.33
2018-07-12T13:38:02.207Z,8.77
2018-07-12T13:40:31.157Z,10.33
2018-07-12T13:43:00.097Z,10.30
2018-07-12T13:45:29.350Z,9.53
2018-07-12T13:47:58.333Z,11.33
2018-07-12T13:50:27.271Z,9.63
2018-07-12T13:52:56.166Z,8.70
2018-07-12T13:55:25.081Z,8.77
2018-07-12T13:57:54.035Z,8.17
2018-07-12T14:00:22.914Z,6.77
2018-07-12T14:02:51.817Z,7.33
2018-07-12T14:05:20.760Z,7.00
2018-07-12T14:07:49.751Z,6.30
2018-07-12T14:10:18.716Z,7.17
2018-07-12T14:12:47.642Z,7.30
2018-07-12T14:15:16.555Z,6.10
2018-07-12T14:17:45.580Z,7.07
2018-07-12T14:20:14.499Z,6.60
2018-07-12T14:22:43.404Z,6.43
2018-07-12T14:25:12.320Z,6.80
2018-07-12T14:27:41.233Z,6.50
2018-07-12T14:30:10.147Z,6.17
2018-07-12T14:32:39.060Z,6.13
2018-07-12T14:35:07.994Z,6.00
2018-07-12T14:37:36.903Z,5.50
2018-07-12T14:40:05.813Z,5.50
2018-07-12T14:42:34.698Z,5.87
2018-07-12T14:45:03.598Z,5.57
2018-07-12T14:47:32.495Z,4.73
2018-07-12T14:50:01.513Z,4.53
2018-07-12T14:52:30.425Z,4.53
2018-07-12T14:54:59.341Z,3.93
2018-07-12T14:57:28.217Z,4.07
2018-07-12T14:59:57.128Z,4.03
2018-07-12T15:02:27.018Z,4.10
2018-07-12T15:04:55.911Z,4.00
2018-07-12T15:07:24.809Z,4.60
2018-07-12T15:09:53.709Z,4.00
2018-07-12T15:12:22.606Z,4.93
2018-07-12T15:14:51.549Z,4.73
2018-07-12T15:17:20.478Z,4.60
2018-07-12T15:19:49.401Z,4.97
2018-07-12T15:22:18.515Z,4.70
2018-07-12T15:24:47.416Z,4.23
2018-07-12T15:27:16.319Z,4.13
2018-07-12T15:29:45.240Z,4.00
2018-07-12T15:32:14.346Z,4.50
2018-07-12T15:34:43.516Z,4.33
2018-07-12T15:37:12.655Z,4.70
2018-07-12T15:39:41.838Z,4.20
2018-07-12T15:42:10.750Z,4.20
2018-07-12T15:44:39.748Z,4.07
2018-07-12T15:47:08.650Z,4.37
2018-07-12T15:49:37.545Z,4.00
2018-07-12T15:52:06.730Z,4.80
2018-07-12T15:54:35.880Z,4.90
2018-07-12T15:57:05.215Z,5.07
2018-07-12T15:59:34.386Z,5.20
2018-07-12T16:02:03.296Z,4.23
2018-07-12T16:04:32.247Z,3.73
2018-07-12T16:07:01.201Z,4.30
2018-07-12T16:09:30.038Z,4.23
2018-07-12T16:11:59.276Z,4.20
2018-07-12T16:14:28.429Z,3.87
2018-07-12T16:16:57.573Z,4.10
2018-07-12T16:19:26.716Z,4.07
2018-07-12T16:21:55.701Z,4.40
2018-07-12T16:24:24.638Z,4.80
2018-07-12T16:26:53.602Z,4.47
2018-07-12T16:29:22.582Z,4.10
2018-07-12T16:31:51.613Z,4.47
2018-07-12T16:34:20.499Z,4.10
2018-07-12T16:36:49.436Z,3.50
2018-07-12T16:39:18.448Z,3.70
2018-07-12T16:41:47.652Z,4.53
2018-07-12T16:44:16.546Z,3.90
2018-07-12T16:46:45.446Z,3.97
2018-07-12T16:49:14.531Z,3.60
2018-07-12T16:51:43.449Z,4.30
2018-07-12T16:54:12.400Z,4.10
2018-07-12T16:56:41.317Z,3.90
2018-07-12T16:59:10.206Z,4.43
2018-07-12T17:01:39.281Z,4.33
2018-07-12T17:04:08.210Z,4.63
2018-07-12T17:06:37.107Z,4.57
2018-07-12T17:09:07.269Z,4.43
2018-07-12T17:11:36.414Z,4.47
2018-07-12T17:14:05.437Z,4.30
2018-07-12T17:16:34.262Z,4.83
2018-07-12T17:19:03.148Z,4.67
2018-07-12T17:21:32.045Z,4.83
2018-07-12T17:24:00.928Z,5.10
2018-07-12T17:26:29.873Z,5.03
2018-07-12T17:28:58.967Z,4.70
2018-07-12T17:31:27.884Z,5.13
2018-07-12T17:33:56.802Z,5.73
2018-07-12T17:36:25.727Z,5.40
2018-07-12T17:38:54.645Z,5.10
2018-07-12T17:41:23.568Z,4.60
2018-07-12T17:43:52.476Z,5.00
2018-07-12T17:46:21.552Z,5.57
2018-07-12T17:48:50.492Z,5.73
2018-07-12T17:51:19.351Z,5.27
2018-07-12T17:53:48.253Z,5.10
2018-07-12T17:56:16.242Z,5.33
2018-07-12T17:58:44.927Z,4.87
2018-07-12T18:01:13.803Z,5.20
2018-07-12T18:03:42.717Z,5.43
2018-07-12T18:06:11.688Z,5.57
2018-07-12T18:08:40.604Z,5.13
2018-07-12T18:11:09.500Z,5.00
2018-07-12T18:13:38.435Z,5.70
2018-07-12T18:16:07.317Z,5.30
2018-07-12T18:18:36.233Z,4.70
2018-07-12T18:21:05.482Z,4.83
2018-07-12T18:23:34.378Z,5.20
2018-07-12T18:26:03.309Z,5.90
2018-07-12T18:28:32.225Z,5.43
2018-07-12T18:31:01.156Z,5.80
2018-07-12T18:33:30.078Z,5.50
2018-07-12T18:35:59.039Z,5.47
2018-07-12T18:38:28.168Z,5.10
2018-07-12T18:41:00.273Z,5.07
2018-07-12T18:43:29.259Z,5.53
2018-07-12T18:45:58.378Z,5.20
2018-07-12T18:48:27.305Z,4.57
2018-07-12T18:50:56.355Z,4.80
2018-07-12T18:53:25.284Z,5.70
2018-07-12T18:55:54.206Z,5.67
2018-07-12T18:58:23.580Z,5.20
2018-07-12T19:00:52.479Z,5.00
2018-07-12T19:03:21.393Z,5.63
2018-07-12T19:05:50.276Z,5.37
2018-07-12T19:08:19.249Z,4.90
2018-07-12T19:10:48.165Z,4.83
2018-07-12T19:13:17.431Z,4.50
2018-07-12T19:15:46.373Z,5.07
2018-07-12T19:18:15.648Z,5.20
2018-07-12T19:20:44.805Z,4.93
2018-07-12T19:23:13.994Z,4.77
2018-07-12T19:25:42.941Z,4.90
2018-07-12T19:28:11.837Z,5.13
2018-07-12T19:30:40.821Z,5.57
2018-07-12T19:33:09.708Z,5.10
2018-07-12T19:35:38.753Z,5.40
2018-07-12T19:38:07.689Z,5.00
2018-07-12T19:40:38.533Z,5.30
2018-07-12T19:43:07.443Z,4.83
2018-07-12T19:45:36.349Z,5.10
2018-07-12T19:48:05.260Z,4.87
2018-07-12T19:50:34.260Z,4.80
2018-07-12T19:53:03.310Z,5.10
2018-07-12T19:55:32.223Z,4.87
2018-07-12T19:58:01.184Z,4.63
2018-07-12T20:00:30.708Z,5.67
2018-07-12T20:02:59.625Z,4.97
2018-07-12T20:05:28.525Z,5.20
2018-07-12T20:07:57.445Z,4.67
2018-07-12T20:10:26.725Z,4.60
2018-07-12T20:12:57.424Z,5.10
2018-07-12T20:15:26.548Z,5.17
2018-07-12T20:17:55.470Z,5.17
2018-07-12T20:20:24.388Z,5.30
2018-07-12T20:22:53.300Z,4.93
2018-07-12T20:25:22.325Z,5.03
2018-07-12T20:27:51.391Z,5.20
2018-07-12T20:30:20.486Z,5.10
2018-07-12T20:32:49.366Z,5.27
2018-07-12T20:35:18.276Z,5.30
2018-07-12T20:37:47.256Z,5.50
2018-07-12T20:40:16.242Z,5.60
2018-07-12T20:42:45.529Z,4.67
2018-07-12T20:45:14.869Z,4.77
2018-07-12T20:47:43.963Z,5.10
2018-07-12T20:50:12.867Z,5.20
2018-07-12T20:52:41.751Z,5.70
2018-07-12T20:55:10.710Z,5.30
2018-07-12T20:57:39.545Z,5.40
2018-07-12T21:00:08.460Z,5.13
2018-07-12T21:02:37.393Z,5.33
2018-07-12T21:05:06.545Z,5.33
2018-07-12T21:07:35.465Z,5.37
2018-07-12T21:10:04.575Z,5.50
2018-07-12T21:12:33.499Z,5.70
2018-07-12T21:15:02.386Z,5.20
2018-07-12T21:17:31.266Z,5.20
2018-07-12T21:20:00.369Z,5.53
2018-07-12T21:22:29.257Z,5.10
2018-07-12T21:24:58.266Z,5.77
2018-07-12T21:27:27.238Z,6.03
2018-07-12T21:29:56.225Z,5.37
2018-07-12T21:32:25.115Z,5.67
2018-07-12T21:34:54.065Z,5.70
2018-07-12T21:37:23.107Z,6.00
2018-07-12T21:39:52.139Z,6.27
2018-07-12T21:42:21.048Z,5.63
2018-07-12T21:44:49.968Z,6.07
2018-07-12T21:47:18.854Z,5.50
2018-07-12T21:49:47.792Z,6.13
2018-07-12T21:52:16.994Z,6.13
2018-07-12T21:54:46.111Z,6.03
2018-07-12T21:57:15.015Z,6.00
2018-07-12T21:59:44.162Z,6.13
2018-07-12T22:02:13.195Z,6.77
2018-07-12T22:04:42.084Z,5.90
2018-07-12T22:08:22.739Z,5.90
2018-07-12T22:10:53.052Z,6.03
2018-07-12T22:13:22.751Z,6.27
2018-07-12T22:15:51.768Z,6.30
2018-07-12T22:18:20.739Z,6.00
2018-07-12T22:20:49.637Z,6.57
2018-07-12T22:23:18.537Z,5.93
2018-07-12T22:25:47.516Z,6.13
2018-07-12T22:28:16.453Z,6.10
2018-07-12T22:30:45.536Z,6.13
2018-07-12T22:33:14.439Z,5.63
2018-07-12T22:35:43.378Z,5.60
2018-07-12T22:38:12.400Z,5.73
2018-07-12T22:40:41.370Z,5.70
2018-07-12T22:43:10.423Z,5.10
2018-07-12T22:45:39.616Z,4.67
2018-07-12T22:48:09.077Z,4.70
2018-07-12T22:50:37.922Z,4.73
2018-07-12T22:53:06.831Z,4.63
2018-07-12T22:55:35.781Z,4.33
2018-07-12T22:58:04.780Z,4.57
2018-07-12T23:00:33.676Z,4.83
2018-07-12T23:03:02.815Z,4.83
2018-07-12T23:05:31.749Z,4.60
2018-07-12T23:08:00.692Z,5.07
2018-07-12T23:10:29.980Z,4.57
2018-07-12T23:12:59.438Z,5.10
2018-07-12T23:15:28.825Z,5.30
2018-07-12T23:17:57.973Z,5.07
2018-07-12T23:20:26.887Z,4.93
2018-07-12T23:22:55.836Z,5.50
2018-07-12T23:25:24.774Z,5.17
2018-07-12T23:27:53.656Z,4.70
2018-07-12T23:30:22.601Z,5.17
2018-07-12T23:32:51.540Z,5.07
2018-07-12T23:35:20.445Z,5.80
2018-07-12T23:37:49.345Z,5.50
2018-07-12T23:40:18.252Z,5.13
2018-07-12T23:42:47.404Z,5.00
2018-07-12T23:45:16.391Z,5.83
2018-07-12T23:47:45.229Z,5.37
2018-07-12T23:50:14.156Z,5.30
2018-07-12T23:52:43.046Z,5.70
2018-07-12T23:55:11.961Z,5.53
2018-07-12T23:57:40.860Z,5.57
